Data for 05/09/2008

Time Sea-Level Adjusted Pressure Absolute Pressure Temperature Relative Humidity Dew Point   
(mb) (inHg) (mb) (inHg) (C) (F) (%) (C) (F)
00:05 1014 29.94 843 24.89 4.6 40.2 68 -0.8 30.6
00:10 1014 29.94 843 24.89 4.3 39.8 70 -0.6 30.9
00:15 1014 29.94 843 24.89 4.6 40.2 69 -0.6 30.9
00:20 1014 29.94 843 24.89 4.2 39.5 74 0 32
00:25 1014 29.94 843 24.89 3.8 38.9 77 0.2 32.4
00:30 1014 29.94 843 24.89 3.7 38.6 79 0.3 32.6
00:35 1014 29.94 843 24.89 3.7 38.6 81 0.6 33.2
00:40 1014 29.94 843 24.89 3.6 38.5 82 0.8 33.4
00:45 1014 29.94 843 24.89 3.7 38.6 82 0.8 33.5
00:50 1014 29.94 843 24.89 3.7 38.7 81 0.8 33.4
00:55 1014 29.94 843 24.89 3.8 38.8 81 0.7 33.3
01:00 1014 29.94 843 24.89 3.7 38.7 81 0.8 33.5
01:05 1014 29.94 843 24.89 3.7 38.7 83 1.1 34
01:10 1014 29.94 843 24.89 3.4 38.2 85 1.1 34
01:15 1014 29.94 843 24.89 3.3 38 86 1.2 34.1
01:20 1014 29.94 843 24.89 3.3 38 86 1.2 34.1
01:25 1014 29.94 843 24.89 3.3 37.9 86 1.1 34
01:30 1014 29.94 843 24.89 3.3 37.9 86 1.1 34
01:35 1014 29.94 843 24.89 3.3 37.9 86 1.1 34.1
01:40 1014 29.94 843 24.89 3.3 38 86 1.2 34.1
01:45 1014 29.94 843 24.89 3.4 38.2 86 1.3 34.3
01:50 1014 29.94 843 24.89 3.5 38.3 87 1.5 34.7
01:55 1014 29.94 843 24.89 3.4 38.1 87 1.5 34.7
02:00 1014 29.94 843 24.89 3.3 38 88 1.6 34.8
02:05 1014 29.94 843 24.89 3.3 37.9 88 1.5 34.8
02:10 1014 29.94 843 24.89 3.2 37.8 89 1.6 34.9
02:15 1014 29.94 843 24.89 3.3 37.9 90 1.7 35.1
02:20 1014 29.94 843 24.89 3.2 37.7 90 1.6 34.9
02:25 1013 29.91 843 24.89 3.1 37.6 90 1.6 34.9
02:30 1013 29.91 843 24.89 3.1 37.6 90 1.6 34.9
02:35 1013 29.91 843 24.89 3.1 37.6 90 1.6 34.9
02:40 1013 29.91 843 24.89 3.1 37.5 90 1.6 34.9
02:45 1013 29.91 843 24.89 3.1 37.5 90 1.6 34.9
02:50 1013 29.91 843 24.89 3.1 37.5 90 1.6 35
02:55 1013 29.91 843 24.89 3 37.4 90 1.6 34.9
03:00 1013 29.91 843 24.89 3 37.4 91 1.6 34.9
03:05 1013 29.91 843 24.89 3.1 37.6 89 1.4 34.5
03:10 1013 29.91 843 24.89 3.1 37.6 89 1.5 34.6
03:15 1013 29.91 843 24.89 3.3 37.9 88 1.5 34.7
03:20 1013 29.91 842 24.86 3.3 38 88 1.5 34.8
03:25 1013 29.91 842 24.86 3.4 38.2 87 1.6 34.8
03:30 1013 29.91 842 24.86 3.3 38 87 1.4 34.5
03:35 1013 29.91 842 24.86 3.2 37.7 88 1.4 34.5
03:40 1013 29.91 842 24.86 2.8 37.1 90 1.4 34.4
03:45 1013 29.91 842 24.86 2.1 35.8 92 1 33.7
03:50 1013 29.91 842 24.86 1.5 34.7 95 0.7 33.3
03:55 1013 29.91 842 24.86 1.4 34.5 96 0.8 33.4
04:00 1013 29.91 842 24.86 1.3 34.3 96 0.7 33.3
04:05 1013 29.91 842 24.86 1.2 34.1 97 0.7 33.3
04:10 1013 29.91 842 24.86 1.1 34 97 0.7 33.3
04:15 1013 29.91 842 24.86 1.1 33.9 98 0.8 33.4
04:20 1013 29.91 842 24.86 1.1 34 98 0.8 33.5
04:25 1013 29.91 842 24.86 1 33.9 98 0.8 33.5
04:30 1013 29.91 842 24.86 1 33.7 99 0.8 33.5
04:35 1013 29.91 842 24.86 1 33.7 99 0.8 33.5
04:40 1013 29.91 842 24.86 1 33.7 99 0.9 33.6
04:45 1013 29.91 842 24.86 1 33.8 100 0.9 33.7
04:50 1013 29.91 842 24.86 1.1 33.9 100 1 33.9
04:55 1013 29.91 842 24.86 1.2 34.2 100 1.2 34.2
05:00 1013 29.91 842 24.86 1.2 34.2 164 8.2 46.8
05:05 1013 29.91 842 24.86 1.1 34 164 8.1 46.7
05:10 1013 29.91 842 24.86 1.3 34.3 164 8.3 47
05:15 1013 29.91 842 24.86 1.2 34.1 164 8.2 46.8
05:20 1013 29.91 842 24.86 1.3 34.3 164 8.3 47
05:25 1013 29.91 842 24.86 1.4 34.5 164 8.4 47.2
05:30 1013 29.91 842 24.86 1.2 34.2 164 8.3 46.9
05:35 1013 29.91 842 24.86 1.1 34 164 8.2 46.7
05:40 1013 29.91 842 24.86 0.7 33.3 164 7.7 45.9
05:45 1013 29.91 842 24.86 0.5 32.9 164 7.5 45.5
05:50 1013 29.91 843 24.89 0.5 32.9 164 7.5 45.5
05:55 1013 29.91 843 24.89 0.6 33 164 7.6 45.7
06:00 1013 29.91 843 24.89 0.7 33.3 164 7.8 46
06:05 1013 29.91 843 24.89 0.8 33.4 164 7.8 46.1
06:10 1013 29.91 843 24.89 0.8 33.4 164 7.8 46.1
06:15 1013 29.91 843 24.89 0.9 33.6 164 7.9 46.3
06:20 1013 29.91 843 24.89 0.9 33.7 164 8 46.3
06:25 1013 29.91 843 24.89 0.9 33.6 164 7.9 46.3
06:30 1013 29.91 843 24.89 0.9 33.6 164 8 46.3
06:35 1013 29.91 843 24.89 0.9 33.6 164 8 46.3
06:40 1013 29.91 843 24.89 0.8 33.5 164 7.8 46.1
06:45 1013 29.91 843 24.89 0.8 33.4 164 7.8 46.1
06:50 1014 29.94 843 24.89 0.8 33.5 164 7.9 46.1
06:55 1014 29.94 843 24.89 0.7 33.2 164 7.7 45.9
07:00 1014 29.94 843 24.89 0.7 33.2 164 7.7 45.9
07:05 1014 29.94 843 24.89 0.6 33.1 164 7.7 45.8
07:10 1014 29.94 843 24.89 0.6 33.1 164 7.7 45.8
07:15 1014 29.94 843 24.89 0.6 33.1 164 7.7 45.8
07:20 1014 29.94 843 24.89 0.7 33.3 164 7.7 45.9
07:25 1014 29.94 843 24.89 0.7 33.3 164 7.8 46
07:30 1014 29.94 843 24.89 0.7 33.2 164 7.7 45.9
07:35 1014 29.94 843 24.89 0.7 33.3 164 7.7 45.9
07:40 1014 29.94 843 24.89 0.9 33.6 164 8 46.3
07:45 1014 29.94 843 24.89 1 33.8 164 8.1 46.5
07:50 1014 29.94 843 24.89 0.9 33.7 164 8 46.3
07:55 1014 29.94 843 24.89 0.9 33.6 164 8 46.3
08:00 1014 29.94 843 24.89 0.9 33.6 164 7.9 46.3
08:05 1014 29.94 843 24.89 0.9 33.5 164 7.9 46.2
08:10 1014 29.94 843 24.89 0.8 33.4 164 7.8 46
08:15 1014 29.94 843 24.89 0.7 33.3 164 7.8 46
08:20 1014 29.94 843 24.89 0.8 33.4 164 7.8 46
08:25 1014 29.94 843 24.89 0.9 33.6 164 7.9 46.2
08:30 1014 29.94 843 24.89 1 33.7 164 8 46.4
08:35 1014 29.94 843 24.89 0.9 33.7 164 8 46.4
08:40 1014 29.94 843 24.89 1 33.8 164 8.1 46.5
08:45 1014 29.94 843 24.89 1 33.9 164 8.1 46.6
08:50 1014 29.94 843 24.89 1 33.7 164 8 46.4
08:55 1014 29.94 843 24.89 1.1 34 164 8.2 46.7
09:00 1014 29.94 843 24.89 1.2 34.2 164 8.3 46.9
09:05 1014 29.94 843 24.89 1.3 34.4 164 8.4 47.1
09:10 1014 29.94 843 24.89 1.5 34.7 164 8.6 47.5
09:15 1014 29.94 843 24.89 1.6 34.9 164 8.7 47.7
09:20 1014 29.94 843 24.89 1.5 34.7 164 8.6 47.4
09:25 1014 29.94 843 24.89 1.4 34.5 164 8.5 47.3
09:30 1014 29.94 843 24.89 1.4 34.6 164 8.5 47.3
09:35 1014 29.94 843 24.89 1.2 34.2 164 8.3 46.9
09:40 1014 29.94 843 24.89 1.3 34.3 164 8.3 47
09:45 1014 29.94 844 24.92 1.3 34.4 164 8.4 47.1
09:50 1014 29.94 844 24.92 1.5 34.6 164 8.5 47.4
09:55 1014 29.94 844 24.92 1.6 34.9 164 8.7 47.6
10:00 1014 29.94 844 24.92 1.6 34.8 164 8.7 47.6
10:05 1014 29.94 844 24.92 1.9 35.4 164 9 48.1
10:10 1014 29.94 844 24.92 2 35.7 164 9.1 48.4
10:15 1014 29.94 843 24.89 1.9 35.3 164 9 48.1
10:20 1014 29.94 843 24.89 1.5 34.7 164 8.6 47.4
10:25 1014 29.94 843 24.89 1.3 34.4 164 8.4 47.1
10:30 1014 29.94 843 24.89 1.7 35.1 164 8.8 47.8
10:35 1014 29.94 843 24.89 2 35.6 164 9.1 48.3
10:40 1014 29.94 843 24.89 1.8 35.3 164 8.9 48.1
10:45 1014 29.94 843 24.89 1.5 34.7 164 8.6 47.4
10:50 1014 29.94 843 24.89 1.2 34.2 164 8.3 46.9
10:55 1014 29.94 843 24.89 1.6 34.9 164 8.7 47.6
11:00 1014 29.94 843 24.89 1.7 35 164 8.7 47.7
11:05 1014 29.94 843 24.89 1.9 35.5 164 9 48.2
11:10 1014 29.94 843 24.89 2.3 36.1 164 9.4 48.9
11:15 1014 29.94 843 24.89 2.7 36.8 164 9.8 49.7
11:20 1014 29.94 843 24.89 2.6 36.7 164 9.8 49.6
11:25 1014 29.94 843 24.89 2.9 37.3 164 10.1 50.2
11:30 1014 29.94 843 24.89 3.1 37.7 90 1.6 34.9
11:35 1014 29.94 843 24.89 3.6 38.4 88 1.8 35.3
11:40 1014 29.94 843 24.89 3.7 38.7 86 1.5 34.8
11:45 1014 29.94 843 24.89 3.5 38.2 87 1.4 34.6
11:50 1014 29.94 843 24.89 3.3 38 87 1.4 34.5
11:55 1014 29.94 843 24.89 3.5 38.3 88 1.7 35
12:00 1014 29.94 843 24.89 3.4 38.1 87 1.5 34.7
12:05 1014 29.94 843 24.89 3.5 38.3 88 1.8 35.2
12:10 1014 29.94 843 24.89 3.6 38.4 88 1.8 35.2
12:15 1014 29.94 843 24.89 3.7 38.7 88 1.9 35.3
12:20 1014 29.94 843 24.89 3.8 38.9 85 1.5 34.7
12:25 1014 29.94 843 24.89 3.5 38.3 86 1.4 34.6
12:30 1014 29.94 843 24.89 3.8 38.9 86 1.7 35.1
12:35 1014 29.94 843 24.89 3.2 37.8 89 1.6 34.8
12:40 1014 29.94 843 24.89 2.5 36.5 90 1.1 34
12:45 1014 29.94 843 24.89 2.4 36.3 90 0.9 33.7
12:50 1014 29.94 843 24.89 2.1 35.8 90 0.7 33.2
12:55 1014 29.94 843 24.89 1.8 35.2 92 0.6 33.1
13:00 1014 29.94 843 24.89 1.8 35.3 93 0.8 33.5
13:05 1014 29.94 843 24.89 2 35.5 93 0.9 33.7
13:10 1014 29.94 843 24.89 2.2 36 94 1.3 34.4
13:15 1014 29.94 843 24.89 2.4 36.4 94 1.6 34.9
13:20 1014 29.94 843 24.89 2.3 36.2 95 1.5 34.8
13:25 1014 29.94 843 24.89 2.3 36.1 95 1.5 34.7
13:30 1014 29.94 843 24.89 2.3 36.1 96 1.7 35.1
13:35 1014 29.94 843 24.89 2.5 36.5 96 2 35.6
13:40 1014 29.94 843 24.89 2.4 36.3 96 1.9 35.4
13:45 1014 29.94 843 24.89 2.2 36 97 1.7 35.1
13:50 1014 29.94 843 24.89 2.3 36.1 96 1.7 35
13:55 1014 29.94 843 24.89 2.2 36 96 1.7 35
14:00 1014 29.94 843 24.89 2.2 36 96 1.6 34.9
14:05 1014 29.94 843 24.89 2 35.6 96 1.4 34.6
14:10 1014 29.94 844 24.92 1.6 34.9 97 1.1 34
14:15 1014 29.94 844 24.92 1.7 35 97 1.2 34.2
14:20 1014 29.94 844 24.92 1.9 35.5 97 1.6 34.8
14:25 1014 29.94 844 24.92 2.3 36.2 96 1.8 35.2
14:30 1015 29.97 844 24.92 2.5 36.5 95 1.8 35.2
14:35 1015 29.97 844 24.92 2 35.6 95 1.3 34.4
14:40 1014 29.94 844 24.92 1.7 35.1 95 1.1 33.9
14:45 1015 29.97 844 24.92 1.6 34.9 96 1.1 34
14:50 1015 29.97 844 24.92 1.9 35.5 95 1.3 34.3
14:55 1015 29.97 844 24.92 2 35.5 95 1.3 34.3
15:00 1015 29.97 844 24.92 2.1 35.8 94 1.2 34.1
15:05 1015 29.97 844 24.92 2.5 36.5 92 1.4 34.5
15:10 1015 29.97 844 24.92 2.7 36.9 93 1.6 35
15:15 1015 29.97 844 24.92 2.8 37.1 90 1.4 34.5
15:20 1015 29.97 844 24.92 2.8 37.1 88 1.1 34
15:25 1015 29.97 844 24.92 3.1 37.6 88 1.3 34.3
15:30 1015 29.97 844 24.92 3 37.4 88 1.1 34.1
15:35 1015 29.97 844 24.92 2.9 37.3 89 1.2 34.2
15:40 1015 29.97 844 24.92 2.5 36.5 91 1.1 34
15:45 1015 29.97 844 24.92 2.4 36.4 92 1.3 34.3
15:50 1015 29.97 844 24.92 2.5 36.4 91 1.1 34
15:55 1015 29.97 844 24.92 2.2 36 92 1 33.7
16:00 1015 29.97 844 24.92 2.3 36.1 91 1 33.8
16:05 1015 29.97 844 24.92 2.5 36.4 91 1.2 34.1
16:10 1015 29.97 844 24.92 2.7 36.9 90 1.2 34.2
16:15 1015 29.97 844 24.92 2.7 36.9 90 1.2 34.1
16:20 1015 29.97 844 24.92 2.2 35.9 92 1 33.8
16:25 1015 29.97 844 24.92 2.2 35.9 93 1.1 34
16:30 1015 29.97 844 24.92 2.3 36.1 92 1.1 33.9
16:35 1015 29.97 844 24.92 2.5 36.4 91 1.2 34.1
16:40 1015 29.97 844 24.92 2.5 36.5 92 1.3 34.3
16:45 1015 29.97 844 24.92 2.6 36.6 91 1.3 34.3
16:50 1015 29.97 844 24.92 2.5 36.5 92 1.4 34.4
16:55 1015 29.97 844 24.92 2.6 36.6 91 1.2 34.2
17:00 1015 29.97 845 24.95 2.7 36.8 90 1.2 34.1
17:05 1015 29.97 845 24.95 2.7 36.8 90 1.2 34.1
17:10 1015 29.97 845 24.95 2.9 37.2 88 1 33.9
17:15 1015 29.97 844 24.92 2.7 36.9 88 1 33.8
17:20 1015 29.97 844 24.92 2.9 37.3 88 1.1 34.1
17:25 1015 29.97 845 24.95 3.1 37.5 87 1.1 33.9
17:30 1015 29.97 845 24.95 2.9 37.2 86 0.8 33.4
17:35 1015 29.97 845 24.95 3 37.3 86 0.9 33.6
17:40 1015 29.97 845 24.95 3.1 37.5 87 1.1 33.9
17:45 1015 29.97 845 24.95 3.2 37.7 84 0.7 33.2
17:50 1015 29.97 845 24.95 3.2 37.7 82 0.4 32.7
17:55 1015 29.97 845 24.95 3.1 37.7 81 0.2 32.4
18:00 1015 29.97 845 24.95 3.3 38 82 0.5 32.9
18:05 1015 29.97 845 24.95 3.5 38.3 79 0.2 32.3
18:10 1015 29.97 845 24.95 3.5 38.4 79 0.3 32.5
18:15 1015 29.97 845 24.95 3.4 38 80 0.3 32.5
18:20 1015 29.97 845 24.95 3.5 38.2 81 0.5 32.8
18:25 1015 29.97 845 24.95 3.4 38.2 79 0 32.1
18:30 1016 30 845 24.95 3.4 38.1 77 -0.2 31.7
18:35 1016 30 845 24.95 3.6 38.4 76 -0.2 31.6
18:40 1016 30 845 24.95 3.7 38.7 74 -0.5 31.1
18:45 1016 30 845 24.95 3.9 39 71 -0.8 30.6
18:50 1016 30 845 24.95 3.9 39 72 -0.7 30.7
18:55 1016 30 845 24.95 3.9 39.1 73 -0.5 31.1
19:00 1016 30 845 24.95 4.1 39.4 71 -0.6 31
19:05 1016 30 845 24.95 4.1 39.4 70 -0.9 30.4
19:10 1016 30 845 24.95 4.2 39.5 69 -1 30.1
19:15 1016 30 845 24.95 4.1 39.4 70 -0.9 30.4
19:20 1016 30 845 24.95 4 39.2 68 -1.3 29.6
19:25 1016 30 845 24.95 4.1 39.4 67 -1.4 29.5
19:30 1016 30 845 24.95 4 39.3 68 -1.3 29.7
19:35 1016 30 845 24.95 4.1 39.3 68 -1.4 29.5
19:40 1016 30 846 24.98 4.1 39.3 71 -0.8 30.6
19:45 1016 30 846 24.98 4.1 39.4 74 -0.2 31.7
19:50 1016 30 846 24.98 4.1 39.3 76 0.3 32.5
19:55 1016 30 846 24.98 3.9 39 78 0.4 32.7
20:00 1017 30.03 846 24.98 3.7 38.6 79 0.4 32.7
20:05 1017 30.03 846 24.98 3.5 38.4 80 0.5 32.8
20:10 1017 30.03 846 24.98 3.4 38.1 81 0.5 32.9
20:15 1017 30.03 846 24.98 3.5 38.2 81 0.6 33
20:20 1017 30.03 846 24.98 3.5 38.3 82 0.7 33.3
20:25 1017 30.03 846 24.98 3.5 38.2 83 0.8 33.4
20:30 1017 30.03 846 24.98 3.4 38.1 82 0.6 33.2
20:35 1017 30.03 846 24.98 3.4 38.2 83 0.8 33.4
20:40 1017 30.03 846 24.98 3.4 38.1 83 0.8 33.5
20:45 1017 30.03 846 24.98 3.4 38.1 84 0.9 33.6
20:50 1017 30.03 846 24.98 3.3 38 83 0.8 33.4
20:55 1017 30.03 847 25.01 3.4 38.1 82 0.6 33
21:00 1017 30.03 847 25.01 3.2 37.8 81 0.3 32.5
21:05 1018 30.06 847 25.01 3.1 37.6 82 0.3 32.5
21:10 1018 30.06 847 25.01 2.8 37 85 0.5 32.9
21:15 1018 30.06 847 25.01 2.2 35.9 88 0.4 32.7
21:20 1018 30.06 847 25.01 1.8 35.3 91 0.5 32.9
21:25 1018 30.06 847 25.01 1.5 34.8 93 0.5 32.9
21:30 1018 30.06 847 25.01 1.5 34.6 94 0.6 33
21:35 1018 30.06 847 25.01 1.4 34.5 94 0.5 32.9
21:40 1018 30.06 847 25.01 1.2 34.2 95 0.5 32.9
21:45 1018 30.06 847 25.01 1.1 33.9 96 0.5 32.9
21:50 1018 30.06 848 25.04 0.6 33 98 0.2 32.4
21:55 1018 30.06 848 25.04 0.3 32.6 99 0.2 32.3
22:00 1018 30.06 847 25.01 0.3 32.6 99 0.2 32.4
22:05 1018 30.06 847 25.01 0.3 32.5 100 0.2 32.4
22:10 1018 30.06 848 25.04 0.2 32.4 100 0.2 32.4
22:15 1018 30.06 848 25.04 0.3 32.6 100 0.3 32.6
22:20 1019 30.09 848 25.04 0.4 32.8 100 0.4 32.8
22:25 1019 30.09 848 25.04 0.5 32.9 100 0.5 32.9
22:30 1019 30.09 848 25.04 0.4 32.8 100 0.4 32.8
22:35 1019 30.09 848 25.04 0.5 32.9 100 0.5 32.9
22:40 1019 30.09 848 25.04 0.6 33 100 0.6 33
22:45 1019 30.09 848 25.04 0.6 33.1 100 0.6 33.1
22:50 1019 30.09 848 25.04 0.5 33 164 7.5 45.5
22:55 1019 30.09 848 25.04 0.6 33 164 7.5 45.6
23:00 1019 30.09 848 25.04 0.5 33 164 7.5 45.6
23:05 1019 30.09 848 25.04 0.6 33 164 7.6 45.7
23:10 1019 30.09 848 25.04 0.6 33 164 7.6 45.6
23:15 1019 30.09 848 25.04 0.6 33 164 7.6 45.6
23:20 1019 30.09 848 25.04 0.7 33.2 164 7.7 45.8
23:25 1019 30.09 848 25.04 0.8 33.5 164 7.9 46.2
23:30 1019 30.09 848 25.04 0.9 33.7 164 8 46.3
23:35 1019 30.09 848 25.04 0.9 33.7 164 8 46.3
23:40 1019 30.09 848 25.04 0.9 33.6 164 7.9 46.3
23:45 1019 30.09 849 25.07 0.9 33.5 164 7.9 46.2
23:50 1019 30.09 849 25.07 0.8 33.5 164 7.9 46.2
23:55 1019 30.09 849 25.07 0.9 33.6 164 7.9 46.2
24:00 1019 30.09 849 25.07 0.8 33.5 164 7.9 46.2